sensor_id;sensor_type;location;lat;lon;timestamp;temperature;humidity
13251;DHT22;6692;50.710;7.180;2023-04-03T00:01:07;6.40;99.90
13251;DHT22;6692;50.710;7.180;2023-04-03T00:03:08;6.30;99.90
13251;DHT22;6692;50.710;7.180;2023-04-03T00:05:09;6.30;99.90
13251;DHT22;6692;50.710;7.180;2023-04-03T00:07:10;6.40;99.90
13251;DHT22;6692;50.710;7.180;2023-04-03T00:09:11;6.30;99.90
13251;DHT22;6692;50.710;7.180;2023-04-03T00:11:12;6.30;99.90
13251;DHT22;6692;50.710;7.180;2023-04-03T00:13:13;6.40;99.90
13251;DHT22;6692;50.710;7.180;2023-04-03T00:15:13;6.40;99.90
13251;DHT22;6692;50.710;7.180;2023-04-03T00:17:14;6.40;99.90
13251;DHT22;6692;50.710;7.180;2023-04-03T00:19:15;6.40;99.90
13251;DHT22;6692;50.710;7.180;2023-04-03T00:21:15;6.40;99.90
13251;DHT22;6692;50.710;7.180;2023-04-03T00:23:17;6.30;99.90
13251;DHT22;6692;50.710;7.180;2023-04-03T00:25:17;6.30;99.90
13251;DHT22;6692;50.710;7.180;2023-04-03T00:27:18;6.40;99.90
13251;DHT22;6692;50.710;7.180;2023-04-03T00:29:19;6.30;99.90
13251;DHT22;6692;50.710;7.180;2023-04-03T00:31:20;6.30;99.90
13251;DHT22;6692;50.710;7.180;2023-04-03T00:33:20;6.30;99.90
13251;DHT22;6692;50.710;7.180;2023-04-03T00:35:21;6.30;99.90
13251;DHT22;6692;50.710;7.180;2023-04-03T00:37:22;6.30;99.90
13251;DHT22;6692;50.710;7.180;2023-04-03T00:39:22;6.30;99.90
13251;DHT22;6692;50.710;7.180;2023-04-03T00:41:23;6.30;99.90
13251;DHT22;6692;50.710;7.180;2023-04-03T00:43:24;6.40;99.90
13251;DHT22;6692;50.710;7.180;2023-04-03T00:45:27;6.20;99.90
13251;DHT22;6692;50.710;7.180;2023-04-03T00:47:26;6.20;99.90
13251;DHT22;6692;50.710;7.180;2023-04-03T00:49:27;6.20;99.90
13251;DHT22;6692;50.710;7.180;2023-04-03T00:51:27;6.10;99.90
13251;DHT22;6692;50.710;7.180;2023-04-03T00:53:32;6.10;99.90
13251;DHT22;6692;50.710;7.180;2023-04-03T00:55:31;6.10;99.90
13251;DHT22;6692;50.710;7.180;2023-04-03T00:57:32;6.10;99.90
13251;DHT22;6692;50.710;7.180;2023-04-03T00:59:34;6.10;99.90
13251;DHT22;6692;50.710;7.180;2023-04-03T01:01:34;6.00;99.90
13251;DHT22;6692;50.710;7.180;2023-04-03T01:03:35;6.00;99.90
13251;DHT22;6692;50.710;7.180;2023-04-03T01:05:35;6.00;99.90
13251;DHT22;6692;50.710;7.180;2023-04-03T01:07:37;5.90;99.90
13251;DHT22;6692;50.710;7.180;2023-04-03T01:09:38;5.90;99.90
13251;DHT22;6692;50.710;7.180;2023-04-03T01:11:39;5.90;99.90
13251;DHT22;6692;50.710;7.180;2023-04-03T01:13:39;5.90;99.90
13251;DHT22;6692;50.710;7.180;2023-04-03T01:15:40;5.90;99.90
13251;DHT22;6692;50.710;7.180;2023-04-03T01:17:44;5.90;99.90
13251;DHT22;6692;50.710;7.180;2023-04-03T01:19:43;5.80;99.90
13251;DHT22;6692;50.710;7.180;2023-04-03T01:24:18;5.90;99.90
13251;DHT22;6692;50.710;7.180;2023-04-03T01:26:16;5.90;99.90
13251;DHT22;6692;50.710;7.180;2023-04-03T01:28:18;5.90;99.90
13251;DHT22;6692;50.710;7.180;2023-04-03T01:30:18;6.00;99.90
13251;DHT22;6692;50.710;7.180;2023-04-03T01:32:18;6.00;99.90
13251;DHT22;6692;50.710;7.180;2023-04-03T01:34:19;6.00;99.90
13251;DHT22;6692;50.710;7.180;2023-04-03T01:36:21;5.90;99.90
13251;DHT22;6692;50.710;7.180;2023-04-03T01:38:22;5.90;99.90
13251;DHT22;6692;50.710;7.180;2023-04-03T01:40:22;5.90;99.90
13251;DHT22;6692;50.710;7.180;2023-04-03T01:42:23;5.90;99.90
13251;DHT22;6692;50.710;7.180;2023-04-03T01:44:23;5.90;99.90
13251;DHT22;6692;50.710;7.180;2023-04-03T01:46:24;5.80;99.90
13251;DHT22;6692;50.710;7.180;2023-04-03T01:48:25;5.80;99.90
13251;DHT22;6692;50.710;7.180;2023-04-03T01:50:26;5.80;99.90
13251;DHT22;6692;50.710;7.180;2023-04-03T01:52:26;5.80;99.90
13251;DHT22;6692;50.710;7.180;2023-04-03T01:54:27;5.80;99.90
13251;DHT22;6692;50.710;7.180;2023-04-03T01:56:28;5.80;99.90
13251;DHT22;6692;50.710;7.180;2023-04-03T01:58:29;5.90;99.90
13251;DHT22;6692;50.710;7.180;2023-04-03T02:00:30;5.90;99.90
13251;DHT22;6692;50.710;7.180;2023-04-03T02:02:30;5.90;99.90
13251;DHT22;6692;50.710;7.180;2023-04-03T02:04:32;5.90;99.90
13251;DHT22;6692;50.710;7.180;2023-04-03T02:06:32;5.90;99.90
13251;DHT22;6692;50.710;7.180;2023-04-03T02:08:33;5.80;99.90
13251;DHT22;6692;50.710;7.180;2023-04-03T02:10:34;5.90;99.90
13251;DHT22;6692;50.710;7.180;2023-04-03T02:12:35;5.90;99.90
13251;DHT22;6692;50.710;7.180;2023-04-03T02:14:35;5.90;99.90
13251;DHT22;6692;50.710;7.180;2023-04-03T02:16:36;5.80;99.90
13251;DHT22;6692;50.710;7.180;2023-04-03T02:18:37;5.70;99.90
13251;DHT22;6692;50.710;7.180;2023-04-03T02:20:37;5.70;99.90
13251;DHT22;6692;50.710;7.180;2023-04-03T02:22:38;5.60;99.90
13251;DHT22;6692;50.710;7.180;2023-04-03T02:24:39;5.60;99.90
13251;DHT22;6692;50.710;7.180;2023-04-03T02:26:39;5.70;99.90
13251;DHT22;6692;50.710;7.180;2023-04-03T02:28:40;5.60;99.90
13251;DHT22;6692;50.710;7.180;2023-04-03T02:30:41;5.70;99.90
13251;DHT22;6692;50.710;7.180;2023-04-03T02:32:42;5.70;99.90
13251;DHT22;6692;50.710;7.180;2023-04-03T02:34:42;5.70;99.90
13251;DHT22;6692;50.710;7.180;2023-04-03T02:36:43;5.60;99.90
13251;DHT22;6692;50.710;7.180;2023-04-03T02:38:43;5.60;99.90
13251;DHT22;6692;50.710;7.180;2023-04-03T02:40:44;5.60;99.90
13251;DHT22;6692;50.710;7.180;2023-04-03T02:42:45;5.70;99.90
13251;DHT22;6692;50.710;7.180;2023-04-03T02:44:45;5.70;99.90
13251;DHT22;6692;50.710;7.180;2023-04-03T02:46:46;5.70;99.90
13251;DHT22;6692;50.710;7.180;2023-04-03T02:48:47;5.70;99.90
13251;DHT22;6692;50.710;7.180;2023-04-03T02:50:48;5.60;99.90
13251;DHT22;6692;50.710;7.180;2023-04-03T02:52:49;5.60;99.90
13251;DHT22;6692;50.710;7.180;2023-04-03T02:54:49;5.60;99.90
13251;DHT22;6692;50.710;7.180;2023-04-03T02:56:50;5.60;99.90
13251;DHT22;6692;50.710;7.180;2023-04-03T02:58:51;5.60;99.90
13251;DHT22;6692;50.710;7.180;2023-04-03T03:00:51;5.50;99.90
13251;DHT22;6692;50.710;7.180;2023-04-03T03:02:52;5.40;99.90
13251;DHT22;6692;50.710;7.180;2023-04-03T03:04:53;5.40;99.90
13251;DHT22;6692;50.710;7.180;2023-04-03T03:06:54;5.30;99.90
13251;DHT22;6692;50.710;7.180;2023-04-03T03:08:55;5.30;99.90
13251;DHT22;6692;50.710;7.180;2023-04-03T03:10:55;5.30;99.90
13251;DHT22;6692;50.710;7.180;2023-04-03T03:12:57;5.20;99.90
13251;DHT22;6692;50.710;7.180;2023-04-03T03:14:58;5.20;99.90
13251;DHT22;6692;50.710;7.180;2023-04-03T03:16:58;5.20;99.90
13251;DHT22;6692;50.710;7.180;2023-04-03T03:18:59;5.20;99.90
13251;DHT22;6692;50.710;7.180;2023-04-03T03:21:00;5.20;99.90
13251;DHT22;6692;50.710;7.180;2023-04-03T03:23:00;5.20;99.90
13251;DHT22;6692;50.710;7.180;2023-04-03T03:25:02;5.20;99.90
13251;DHT22;6692;50.710;7.180;2023-04-03T03:27:03;5.20;99.90
13251;DHT22;6692;50.710;7.180;2023-04-03T03:29:03;5.10;99.90
13251;DHT22;6692;50.710;7.180;2023-04-03T03:31:05;5.00;99.90
13251;DHT22;6692;50.710;7.180;2023-04-03T03:33:05;5.00;99.90
13251;DHT22;6692;50.710;7.180;2023-04-03T03:35:07;4.90;99.90
13251;DHT22;6692;50.710;7.180;2023-04-03T03:37:07;4.90;99.90
13251;DHT22;6692;50.710;7.180;2023-04-03T03:39:09;4.90;99.90
13251;DHT22;6692;50.710;7.180;2023-04-03T03:41:09;4.80;99.90
13251;DHT22;6692;50.710;7.180;2023-04-03T03:43:10;4.70;99.90
13251;DHT22;6692;50.710;7.180;2023-04-03T03:45:11;4.70;99.90
13251;DHT22;6692;50.710;7.180;2023-04-03T03:47:12;4.70;99.90
13251;DHT22;6692;50.710;7.180;2023-04-03T03:49:12;4.60;99.90
13251;DHT22;6692;50.710;7.180;2023-04-03T03:51:14;4.60;99.90
13251;DHT22;6692;50.710;7.180;2023-04-03T03:53:14;4.60;99.90
13251;DHT22;6692;50.710;7.180;2023-04-03T03:55:15;4.50;99.90
13251;DHT22;6692;50.710;7.180;2023-04-03T03:57:16;4.40;99.90
13251;DHT22;6692;50.710;7.180;2023-04-03T03:59:17;4.40;99.90
13251;DHT22;6692;50.710;7.180;2023-04-03T04:01:18;4.40;99.90
13251;DHT22;6692;50.710;7.180;2023-04-03T04:03:18;4.30;99.90
13251;DHT22;6692;50.710;7.180;2023-04-03T04:05:19;4.30;99.90
13251;DHT22;6692;50.710;7.180;2023-04-03T04:07:20;4.30;99.90
13251;DHT22;6692;50.710;7.180;2023-04-03T04:09:21;4.30;99.90
13251;DHT22;6692;50.710;7.180;2023-04-03T04:11:22;4.30;99.90
13251;DHT22;6692;50.710;7.180;2023-04-03T04:13:22;4.30;99.90
13251;DHT22;6692;50.710;7.180;2023-04-03T04:15:23;4.20;99.90
13251;DHT22;6692;50.710;7.180;2023-04-03T04:17:24;4.10;99.90
13251;DHT22;6692;50.710;7.180;2023-04-03T04:19:25;4.10;99.90
13251;DHT22;6692;50.710;7.180;2023-04-03T04:21:27;4.00;99.90
13251;DHT22;6692;50.710;7.180;2023-04-03T04:23:27;4.00;99.90
13251;DHT22;6692;50.710;7.180;2023-04-03T04:25:28;4.00;99.90
13251;DHT22;6692;50.710;7.180;2023-04-03T04:27:29;3.90;99.90
13251;DHT22;6692;50.710;7.180;2023-04-03T04:29:30;3.90;99.90
13251;DHT22;6692;50.710;7.180;2023-04-03T04:31:31;3.90;99.90
13251;DHT22;6692;50.710;7.180;2023-04-03T04:33:31;3.90;99.90
13251;DHT22;6692;50.710;7.180;2023-04-03T04:35:32;3.90;99.90
13251;DHT22;6692;50.710;7.180;2023-04-03T04:37:33;3.80;99.90
13251;DHT22;6692;50.710;7.180;2023-04-03T04:39:34;3.80;99.90
13251;DHT22;6692;50.710;7.180;2023-04-03T04:41:36;3.80;99.90
13251;DHT22;6692;50.710;7.180;2023-04-03T04:43:36;3.80;99.90
13251;DHT22;6692;50.710;7.180;2023-04-03T04:45:37;3.80;99.90
13251;DHT22;6692;50.710;7.180;2023-04-03T04:47:38;3.80;99.90
13251;DHT22;6692;50.710;7.180;2023-04-03T04:49:41;3.70;99.90
13251;DHT22;6692;50.710;7.180;2023-04-03T04:51:41;3.80;99.90
13251;DHT22;6692;50.710;7.180;2023-04-03T04:53:42;3.70;99.90
13251;DHT22;6692;50.710;7.180;2023-04-03T04:55:43;3.70;99.90
13251;DHT22;6692;50.710;7.180;2023-04-03T04:57:44;3.70;99.90
13251;DHT22;6692;50.710;7.180;2023-04-03T04:59:45;3.70;99.90
13251;DHT22;6692;50.710;7.180;2023-04-03T05:01:45;3.70;99.90
13251;DHT22;6692;50.710;7.180;2023-04-03T05:03:46;3.70;99.90
13251;DHT22;6692;50.710;7.180;2023-04-03T05:05:47;3.70;99.90
13251;DHT22;6692;50.710;7.180;2023-04-03T05:07:48;3.60;99.90
13251;DHT22;6692;50.710;7.180;2023-04-03T05:09:49;3.60;99.90
13251;DHT22;6692;50.710;7.180;2023-04-03T05:11:49;3.60;99.90
13251;DHT22;6692;50.710;7.180;2023-04-03T05:13:50;3.60;99.90
13251;DHT22;6692;50.710;7.180;2023-04-03T05:15:51;3.60;99.90
13251;DHT22;6692;50.710;7.180;2023-04-03T05:17:52;3.50;99.90
13251;DHT22;6692;50.710;7.180;2023-04-03T05:19:53;3.60;99.90
13251;DHT22;6692;50.710;7.180;2023-04-03T05:21:54;3.60;99.90
13251;DHT22;6692;50.710;7.180;2023-04-03T05:23:55;3.60;99.90
13251;DHT22;6692;50.710;7.180;2023-04-03T05:25:56;3.60;99.90
13251;DHT22;6692;50.710;7.180;2023-04-03T05:27:56;3.60;99.90
13251;DHT22;6692;50.710;7.180;2023-04-03T05:29:57;3.60;99.90
13251;DHT22;6692;50.710;7.180;2023-04-03T05:31:58;3.70;99.90
13251;DHT22;6692;50.710;7.180;2023-04-03T05:33:58;3.70;99.90
13251;DHT22;6692;50.710;7.180;2023-04-03T05:36:02;3.70;99.90
13251;DHT22;6692;50.710;7.180;2023-04-03T05:38:02;3.70;99.90
13251;DHT22;6692;50.710;7.180;2023-04-03T05:40:03;3.70;99.90
13251;DHT22;6692;50.710;7.180;2023-04-03T05:42:04;3.80;99.90
13251;DHT22;6692;50.710;7.180;2023-04-03T05:44:04;3.80;99.90
13251;DHT22;6692;50.710;7.180;2023-04-03T05:46:10;3.80;99.90
13251;DHT22;6692;50.710;7.180;2023-04-03T05:48:10;3.80;99.90
13251;DHT22;6692;50.710;7.180;2023-04-03T05:50:12;3.90;99.90
13251;DHT22;6692;50.710;7.180;2023-04-03T05:52:18;3.90;99.90
13251;DHT22;6692;50.710;7.180;2023-04-03T05:54:20;3.90;99.90
13251;DHT22;6692;50.710;7.180;2023-04-03T05:56:20;3.90;99.90
13251;DHT22;6692;50.710;7.180;2023-04-03T05:58:20;4.00;99.90
13251;DHT22;6692;50.710;7.180;2023-04-03T06:00:21;4.00;99.90
13251;DHT22;6692;50.710;7.180;2023-04-03T06:02:23;4.10;99.90
13251;DHT22;6692;50.710;7.180;2023-04-03T06:04:23;4.00;99.90
13251;DHT22;6692;50.710;7.180;2023-04-03T06:06:24;4.10;99.90
13251;DHT22;6692;50.710;7.180;2023-04-03T06:08:25;4.20;99.90
13251;DHT22;6692;50.710;7.180;2023-04-03T06:10:26;4.20;99.90
13251;DHT22;6692;50.710;7.180;2023-04-03T06:12:27;4.20;99.90
13251;DHT22;6692;50.710;7.180;2023-04-03T06:14:28;4.20;99.90
13251;DHT22;6692;50.710;7.180;2023-04-03T06:16:29;4.30;99.90
13251;DHT22;6692;50.710;7.180;2023-04-03T06:18:30;4.30;99.90
13251;DHT22;6692;50.710;7.180;2023-04-03T06:20:31;4.30;99.90
13251;DHT22;6692;50.710;7.180;2023-04-03T06:22:32;4.40;99.90
13251;DHT22;6692;50.710;7.180;2023-04-03T06:24:33;4.30;99.90
13251;DHT22;6692;50.710;7.180;2023-04-03T06:26:34;4.30;99.90
13251;DHT22;6692;50.710;7.180;2023-04-03T06:28:34;4.40;99.90
13251;DHT22;6692;50.710;7.180;2023-04-03T06:30:35;4.40;99.90
13251;DHT22;6692;50.710;7.180;2023-04-03T06:32:36;4.40;99.90
13251;DHT22;6692;50.710;7.180;2023-04-03T06:34:36;4.40;99.90
13251;DHT22;6692;50.710;7.180;2023-04-03T06:36:37;4.50;99.90
13251;DHT22;6692;50.710;7.180;2023-04-03T06:38:38;4.50;99.90
13251;DHT22;6692;50.710;7.180;2023-04-03T06:40:39;4.60;99.90
13251;DHT22;6692;50.710;7.180;2023-04-03T06:42:40;4.50;99.90
13251;DHT22;6692;50.710;7.180;2023-04-03T06:44:41;4.60;99.90
13251;DHT22;6692;50.710;7.180;2023-04-03T06:46:42;4.60;99.90
13251;DHT22;6692;50.710;7.180;2023-04-03T06:48:43;4.60;99.90
13251;DHT22;6692;50.710;7.180;2023-04-03T06:50:43;4.60;99.90
13251;DHT22;6692;50.710;7.180;2023-04-03T06:52:44;4.70;99.90
13251;DHT22;6692;50.710;7.180;2023-04-03T06:54:45;4.70;99.90
13251;DHT22;6692;50.710;7.180;2023-04-03T06:56:45;4.70;99.90
13251;DHT22;6692;50.710;7.180;2023-04-03T06:58:46;4.70;99.90
13251;DHT22;6692;50.710;7.180;2023-04-03T07:00:47;4.70;99.90
13251;DHT22;6692;50.710;7.180;2023-04-03T07:02:47;4.80;99.90
13251;DHT22;6692;50.710;7.180;2023-04-03T07:04:48;4.80;99.90
13251;DHT22;6692;50.710;7.180;2023-04-03T07:06:49;4.80;99.90
13251;DHT22;6692;50.710;7.180;2023-04-03T07:08:49;4.80;99.90
13251;DHT22;6692;50.710;7.180;2023-04-03T07:10:51;4.80;99.90
13251;DHT22;6692;50.710;7.180;2023-04-03T07:12:51;4.80;99.90
13251;DHT22;6692;50.710;7.180;2023-04-03T07:14:52;4.90;99.90
13251;DHT22;6692;50.710;7.180;2023-04-03T07:16:54;4.90;99.90
13251;DHT22;6692;50.710;7.180;2023-04-03T07:18:54;4.90;99.90
13251;DHT22;6692;50.710;7.180;2023-04-03T07:20:55;4.90;99.90
13251;DHT22;6692;50.710;7.180;2023-04-03T07:22:56;4.90;99.90
13251;DHT22;6692;50.710;7.180;2023-04-03T07:24:57;5.00;99.90
13251;DHT22;6692;50.710;7.180;2023-04-03T07:26:58;5.00;99.90
13251;DHT22;6692;50.710;7.180;2023-04-03T07:28:58;5.00;99.90
13251;DHT22;6692;50.710;7.180;2023-04-03T07:31:05;5.10;99.90
13251;DHT22;6692;50.710;7.180;2023-04-03T07:33:04;5.10;99.90
13251;DHT22;6692;50.710;7.180;2023-04-03T07:35:05;5.10;99.90
13251;DHT22;6692;50.710;7.180;2023-04-03T07:37:06;5.20;99.90
13251;DHT22;6692;50.710;7.180;2023-04-03T07:39:07;5.20;99.90
13251;DHT22;6692;50.710;7.180;2023-04-03T07:41:10;5.20;99.90
13251;DHT22;6692;50.710;7.180;2023-04-03T07:43:08;5.30;99.90
13251;DHT22;6692;50.710;7.180;2023-04-03T07:45:10;5.30;99.90
13251;DHT22;6692;50.710;7.180;2023-04-03T07:47:11;5.40;99.90
13251;DHT22;6692;50.710;7.180;2023-04-03T07:49:12;5.30;99.90
13251;DHT22;6692;50.710;7.180;2023-04-03T07:51:13;5.40;99.90
13251;DHT22;6692;50.710;7.180;2023-04-03T07:53:14;5.40;99.90
13251;DHT22;6692;50.710;7.180;2023-04-03T07:55:14;5.40;99.90
13251;DHT22;6692;50.710;7.180;2023-04-03T07:57:15;5.40;99.90
13251;DHT22;6692;50.710;7.180;2023-04-03T07:59:16;5.50;99.90
13251;DHT22;6692;50.710;7.180;2023-04-03T08:01:17;5.50;99.90
13251;DHT22;6692;50.710;7.180;2023-04-03T08:03:18;5.50;99.90
13251;DHT22;6692;50.710;7.180;2023-04-03T08:05:18;5.60;99.90
13251;DHT22;6692;50.710;7.180;2023-04-03T08:07:20;5.70;99.90
13251;DHT22;6692;50.710;7.180;2023-04-03T08:09:21;5.60;99.90
13251;DHT22;6692;50.710;7.180;2023-04-03T08:11:21;5.70;99.90
13251;DHT22;6692;50.710;7.180;2023-04-03T08:13:22;5.70;99.90
13251;DHT22;6692;50.710;7.180;2023-04-03T08:15:23;5.70;99.90
13251;DHT22;6692;50.710;7.180;2023-04-03T08:17:23;5.80;99.90
13251;DHT22;6692;50.710;7.180;2023-04-03T08:19:25;5.80;99.90
13251;DHT22;6692;50.710;7.180;2023-04-03T08:21:25;5.80;99.90
13251;DHT22;6692;50.710;7.180;2023-04-03T08:23:26;5.80;99.90
13251;DHT22;6692;50.710;7.180;2023-04-03T08:25:27;5.90;99.90
13251;DHT22;6692;50.710;7.180;2023-04-03T08:27:28;5.80;99.90
13251;DHT22;6692;50.710;7.180;2023-04-03T08:29:29;5.90;99.90
13251;DHT22;6692;50.710;7.180;2023-04-03T08:31:30;5.90;99.90
13251;DHT22;6692;50.710;7.180;2023-04-03T08:33:32;5.90;99.90
13251;DHT22;6692;50.710;7.180;2023-04-03T08:35:32;5.90;99.90
13251;DHT22;6692;50.710;7.180;2023-04-03T08:37:35;5.90;99.90
13251;DHT22;6692;50.710;7.180;2023-04-03T08:39:35;5.90;99.90
13251;DHT22;6692;50.710;7.180;2023-04-03T08:41:39;6.00;99.90
13251;DHT22;6692;50.710;7.180;2023-04-03T08:43:53;5.90;99.90
13251;DHT22;6692;50.710;7.180;2023-04-03T08:45:49;6.00;99.90
13251;DHT22;6692;50.710;7.180;2023-04-03T08:48:03;6.10;99.90
13251;DHT22;6692;50.710;7.180;2023-04-03T08:50:03;6.10;99.90
13251;DHT22;6692;50.710;7.180;2023-04-03T08:52:05;6.10;99.90
13251;DHT22;6692;50.710;7.180;2023-04-03T08:54:05;6.10;99.90
13251;DHT22;6692;50.710;7.180;2023-04-03T08:56:08;6.20;99.90
13251;DHT22;6692;50.710;7.180;2023-04-03T08:58:14;6.20;99.90
13251;DHT22;6692;50.710;7.180;2023-04-03T09:00:16;6.20;99.90
13251;DHT22;6692;50.710;7.180;2023-04-03T09:02:25;6.20;99.90
13251;DHT22;6692;50.710;7.180;2023-04-03T09:04:24;6.30;99.90
13251;DHT22;6692;50.710;7.180;2023-04-03T09:06:26;6.30;99.90
13251;DHT22;6692;50.710;7.180;2023-04-03T09:08:27;6.30;99.90
13251;DHT22;6692;50.710;7.180;2023-04-03T09:10:28;6.40;99.90
13251;DHT22;6692;50.710;7.180;2023-04-03T09:12:32;6.30;99.90
13251;DHT22;6692;50.710;7.180;2023-04-03T09:14:45;6.30;99.90
13251;DHT22;6692;50.710;7.180;2023-04-03T09:16:53;6.30;99.90
13251;DHT22;6692;50.710;7.180;2023-04-03T09:18:52;6.30;99.90
13251;DHT22;6692;50.710;7.180;2023-04-03T09:20:57;6.30;99.90
13251;DHT22;6692;50.710;7.180;2023-04-03T09:22:54;6.30;99.90
13251;DHT22;6692;50.710;7.180;2023-04-03T09:25:07;6.40;99.90
13251;DHT22;6692;50.710;7.180;2023-04-03T09:27:06;6.40;99.90
13251;DHT22;6692;50.710;7.180;2023-04-03T09:29:06;6.50;99.90
13251;DHT22;6692;50.710;7.180;2023-04-03T09:31:16;6.50;99.90
13251;DHT22;6692;50.710;7.180;2023-04-03T09:33:14;6.50;99.90
13251;DHT22;6692;50.710;7.180;2023-04-03T09:35:29;6.50;99.90
13251;DHT22;6692;50.710;7.180;2023-04-03T09:37:36;6.50;99.90
13251;DHT22;6692;50.710;7.180;2023-04-03T09:39:51;6.60;99.90
13251;DHT22;6692;50.710;7.180;2023-04-03T09:42:17;6.50;99.90
13251;DHT22;6692;50.710;7.180;2023-04-03T09:44:21;6.60;99.90
13251;DHT22;6692;50.710;7.180;2023-04-03T09:46:29;6.60;99.90
13251;DHT22;6692;50.710;7.180;2023-04-03T09:48:26;6.50;99.90
13251;DHT22;6692;50.710;7.180;2023-04-03T09:50:27;6.50;99.90
13251;DHT22;6692;50.710;7.180;2023-04-03T09:52:28;6.60;99.90
13251;DHT22;6692;50.710;7.180;2023-04-03T09:54:31;6.50;99.90
13251;DHT22;6692;50.710;7.180;2023-04-03T09:56:31;6.60;99.90
13251;DHT22;6692;50.710;7.180;2023-04-03T09:58:35;6.60;99.90
13251;DHT22;6692;50.710;7.180;2023-04-03T10:00:36;6.60;99.90
13251;DHT22;6692;50.710;7.180;2023-04-03T10:02:37;6.60;99.90
13251;DHT22;6692;50.710;7.180;2023-04-03T10:04:38;6.60;99.90
13251;DHT22;6692;50.710;7.180;2023-04-03T10:06:48;6.60;99.90
13251;DHT22;6692;50.710;7.180;2023-04-03T10:08:58;6.70;99.90
13251;DHT22;6692;50.710;7.180;2023-04-03T10:11:05;6.70;99.90
13251;DHT22;6692;50.710;7.180;2023-04-03T10:13:02;6.70;99.90
13251;DHT22;6692;50.710;7.180;2023-04-03T10:14:54;6.70;99.90
13251;DHT22;6692;50.710;7.180;2023-04-03T10:16:59;6.80;99.90
13251;DHT22;6692;50.710;7.180;2023-04-03T10:21:06;6.70;99.90
13251;DHT22;6692;50.710;7.180;2023-04-03T10:23:28;6.70;99.90
13251;DHT22;6692;50.710;7.180;2023-04-03T10:25:35;6.70;99.90
13251;DHT22;6692;50.710;7.180;2023-04-03T10:29:59;6.80;99.90
13251;DHT22;6692;50.710;7.180;2023-04-03T10:34:06;6.80;99.90
13251;DHT22;6692;50.710;7.180;2023-04-03T10:36:12;6.80;99.90
13251;DHT22;6692;50.710;7.180;2023-04-03T10:38:30;6.80;99.90
13251;DHT22;6692;50.710;7.180;2023-04-03T10:40:39;6.80;99.90
13251;DHT22;6692;50.710;7.180;2023-04-03T10:42:38;6.80;99.90
13251;DHT22;6692;50.710;7.180;2023-04-03T10:44:59;6.80;99.90
13251;DHT22;6692;50.710;7.180;2023-04-03T10:47:20;6.80;99.90
13251;DHT22;6692;50.710;7.180;2023-04-03T10:49:45;6.80;99.90
13251;DHT22;6692;50.710;7.180;2023-04-03T10:51:44;6.90;99.90
13251;DHT22;6692;50.710;7.180;2023-04-03T10:53:52;6.90;99.90
13251;DHT22;6692;50.710;7.180;2023-04-03T10:55:54;6.90;99.90
13251;DHT22;6692;50.710;7.180;2023-04-03T10:57:53;6.90;99.90
13251;DHT22;6692;50.710;7.180;2023-04-03T10:59:55;6.90;99.90
13251;DHT22;6692;50.710;7.180;2023-04-03T11:01:59;7.00;99.90
13251;DHT22;6692;50.710;7.180;2023-04-03T11:03:59;7.00;99.90
13251;DHT22;6692;50.710;7.180;2023-04-03T11:05:59;7.00;99.90
13251;DHT22;6692;50.710;7.180;2023-04-03T11:08:02;7.00;99.90
13251;DHT22;6692;50.710;7.180;2023-04-03T11:10:03;7.10;99.90
13251;DHT22;6692;50.710;7.180;2023-04-03T11:12:08;7.10;99.90
13251;DHT22;6692;50.710;7.180;2023-04-03T11:14:11;7.10;99.90
13251;DHT22;6692;50.710;7.180;2023-04-03T11:16:12;7.10;99.90
13251;DHT22;6692;50.710;7.180;2023-04-03T11:18:12;7.20;99.90
13251;DHT22;6692;50.710;7.180;2023-04-03T11:20:23;7.10;99.90
13251;DHT22;6692;50.710;7.180;2023-04-03T11:22:30;7.20;99.90
13251;DHT22;6692;50.710;7.180;2023-04-03T11:24:30;7.20;99.90
13251;DHT22;6692;50.710;7.180;2023-04-03T11:26:31;7.20;99.90
13251;DHT22;6692;50.710;7.180;2023-04-03T11:28:31;7.20;99.90
13251;DHT22;6692;50.710;7.180;2023-04-03T11:30:46;7.20;99.90
13251;DHT22;6692;50.710;7.180;2023-04-03T11:32:52;7.30;99.90
13251;DHT22;6692;50.710;7.180;2023-04-03T11:34:49;7.30;99.90
13251;DHT22;6692;50.710;7.180;2023-04-03T11:36:52;7.30;99.90
13251;DHT22;6692;50.710;7.180;2023-04-03T11:38:52;7.30;99.90
13251;DHT22;6692;50.710;7.180;2023-04-03T11:40:52;7.30;99.90
13251;DHT22;6692;50.710;7.180;2023-04-03T11:43:03;7.40;99.90
13251;DHT22;6692;50.710;7.180;2023-04-03T11:47:11;7.40;99.90
13251;DHT22;6692;50.710;7.180;2023-04-03T11:49:49;7.40;99.90
13251;DHT22;6692;50.710;7.180;2023-04-03T11:53:35;7.50;99.90
13251;DHT22;6692;50.710;7.180;2023-04-03T11:55:41;7.50;99.90
13251;DHT22;6692;50.710;7.180;2023-04-03T11:57:43;7.60;99.90
13251;DHT22;6692;50.710;7.180;2023-04-03T11:59:42;7.60;99.90
13251;DHT22;6692;50.710;7.180;2023-04-03T12:01:47;7.60;99.90
13251;DHT22;6692;50.710;7.180;2023-04-03T12:04:07;7.60;99.90
13251;DHT22;6692;50.710;7.180;2023-04-03T12:08:47;7.70;99.90
13251;DHT22;6692;50.710;7.180;2023-04-03T12:13:01;7.80;99.90
13251;DHT22;6692;50.710;7.180;2023-04-03T12:17:19;7.80;99.90
13251;DHT22;6692;50.710;7.180;2023-04-03T12:19:38;7.80;99.90
13251;DHT22;6692;50.710;7.180;2023-04-03T12:24:02;7.80;99.90
13251;DHT22;6692;50.710;7.180;2023-04-03T12:26:06;7.80;99.90
13251;DHT22;6692;50.710;7.180;2023-04-03T12:28:05;7.90;99.90
13251;DHT22;6692;50.710;7.180;2023-04-03T12:30:12;7.90;99.90
13251;DHT22;6692;50.710;7.180;2023-04-03T12:34:53;7.90;99.90
13251;DHT22;6692;50.710;7.180;2023-04-03T12:37:02;7.90;99.90
13251;DHT22;6692;50.710;7.180;2023-04-03T12:39:25;8.00;99.90
13251;DHT22;6692;50.710;7.180;2023-04-03T12:41:32;8.00;99.90
13251;DHT22;6692;50.710;7.180;2023-04-03T12:46:02;8.00;99.90
13251;DHT22;6692;50.710;7.180;2023-04-03T12:48:00;8.00;99.90
13251;DHT22;6692;50.710;7.180;2023-04-03T12:50:02;8.00;99.90
13251;DHT22;6692;50.710;7.180;2023-04-03T12:52:29;8.00;99.90
13251;DHT22;6692;50.710;7.180;2023-04-03T12:54:23;8.00;99.90
13251;DHT22;6692;50.710;7.180;2023-04-03T12:56:25;8.10;99.90
13251;DHT22;6692;50.710;7.180;2023-04-03T12:58:26;8.10;99.90
13251;DHT22;6692;50.710;7.180;2023-04-03T13:00:33;8.20;99.90
13251;DHT22;6692;50.710;7.180;2023-04-03T13:02:34;8.20;99.90
13251;DHT22;6692;50.710;7.180;2023-04-03T13:04:33;8.50;99.90
13251;DHT22;6692;50.710;7.180;2023-04-03T13:06:39;9.00;99.90
13251;DHT22;6692;50.710;7.180;2023-04-03T13:08:34;9.70;99.90
13251;DHT22;6692;50.710;7.180;2023-04-03T13:10:43;10.50;99.90
13251;DHT22;6692;50.710;7.180;2023-04-03T13:12:45;11.20;99.90
13251;DHT22;6692;50.710;7.180;2023-04-03T13:14:37;11.90;99.90
13251;DHT22;6692;50.710;7.180;2023-04-03T13:16:37;12.60;99.90
13251;DHT22;6692;50.710;7.180;2023-04-03T13:18:38;13.10;99.90
13251;DHT22;6692;50.710;7.180;2023-04-03T13:20:38;13.70;99.90
13251;DHT22;6692;50.710;7.180;2023-04-03T13:22:41;14.10;99.90
13251;DHT22;6692;50.710;7.180;2023-04-03T13:24:40;14.40;99.90
13251;DHT22;6692;50.710;7.180;2023-04-03T13:26:41;14.40;99.90
13251;DHT22;6692;50.710;7.180;2023-04-03T13:28:42;14.70;99.90
13251;DHT22;6692;50.710;7.180;2023-04-03T13:30:54;15.00;99.90
13251;DHT22;6692;50.710;7.180;2023-04-03T13:32:50;15.20;99.90
13251;DHT22;6692;50.710;7.180;2023-04-03T13:34:52;15.60;99.90
13251;DHT22;6692;50.710;7.180;2023-04-03T13:36:56;15.60;99.90
13251;DHT22;6692;50.710;7.180;2023-04-03T13:38:59;15.70;99.90
13251;DHT22;6692;50.710;7.180;2023-04-03T13:41:01;15.60;99.90
13251;DHT22;6692;50.710;7.180;2023-04-03T13:43:05;15.60;99.90
13251;DHT22;6692;50.710;7.180;2023-04-03T13:47:16;15.00;99.90